createdAt,value
2018-01-18T00:32:16.625Z,100028.03
2018-01-18T00:34:44.202Z,100025.55
2018-01-18T00:37:11.834Z,100030.31
2018-01-18T00:39:39.522Z,100024.17
2018-01-18T00:42:07.168Z,100016.96
2018-01-18T00:44:34.799Z,100016.67
2018-01-18T00:47:02.470Z,100000.63
2018-01-18T00:49:30.052Z,99998.23
2018-01-18T00:51:57.681Z,99991.96
2018-01-18T00:54:25.267Z,99980.15
2018-01-18T00:56:52.890Z,99979.11
2018-01-18T00:59:20.518Z,99969.95
2018-01-18T01:01:48.121Z,99965.47
2018-01-18T01:04:15.719Z,99956.19
2018-01-18T01:06:43.421Z,99945.98
2018-01-18T01:09:11.000Z,99935.42
2018-01-18T01:11:38.617Z,99926.80
2018-01-18T01:14:06.225Z,99923.23
2018-01-18T01:16:33.840Z,99905.86
2018-01-18T01:19:01.418Z,99904.13
2018-01-18T01:21:29.081Z,99894.34
2018-01-18T01:23:56.653Z,99892.01
2018-01-18T01:26:24.289Z,99895.83
2018-01-18T01:28:51.884Z,99892.13
2018-01-18T01:31:19.505Z,99882.72
2018-01-18T01:33:47.098Z,99871.73
2018-01-18T01:36:14.756Z,99875.67
2018-01-18T01:38:42.341Z,99889.89
2018-01-18T01:41:09.953Z,99868.41
2018-01-18T01:43:37.551Z,99862.45
2018-01-18T01:46:05.182Z,99862.89
2018-01-18T01:48:38.606Z,99859.50
2018-01-18T01:51:06.228Z,99841.91
2018-01-18T01:53:33.801Z,99830.77
2018-01-18T01:56:01.506Z,99815.73
2018-01-18T01:58:29.083Z,99801.13
2018-01-18T02:00:56.729Z,99784.67
2018-01-18T02:03:24.324Z,99783.06
2018-01-18T02:05:51.946Z,99780.91
2018-01-18T02:08:19.529Z,99784.95
2018-01-18T02:10:47.195Z,99767.87
2018-01-18T02:13:14.779Z,99772.29
2018-01-18T02:15:42.402Z,99776.94
2018-01-18T02:18:09.981Z,99773.91
2018-01-18T02:20:37.569Z,99774.72
2018-01-18T02:23:05.178Z,99776.71
2018-01-18T02:25:32.801Z,99762.94
2018-01-18T02:28:00.427Z,99758.93
2018-01-18T02:30:28.046Z,99742.37
2018-01-18T02:32:55.666Z,99728.95
2018-01-18T02:35:23.385Z,99724.47
2018-01-18T02:37:51.065Z,99715.34
2018-01-18T02:40:18.655Z,99711.10
2018-01-18T02:42:46.231Z,99694.80
2018-01-18T02:45:13.826Z,99687.25
2018-01-18T02:47:41.438Z,99685.16
2018-01-18T02:50:09.022Z,99661.28
2018-01-18T02:52:36.641Z,99652.39
2018-01-18T02:55:04.274Z,99638.72
2018-01-18T02:57:31.899Z,99621.19
2018-01-18T02:59:59.511Z,99623.97
2018-01-18T03:02:27.102Z,99616.39
2018-01-18T03:04:54.681Z,99595.41
2018-01-18T03:07:22.401Z,99592.52
2018-01-18T03:09:49.985Z,99565.03
2018-01-18T03:12:17.609Z,99552.56
2018-01-18T03:14:45.201Z,99552.05
2018-01-18T03:17:12.854Z,99533.88
2018-01-18T03:19:40.437Z,99522.97
2018-01-18T03:22:08.190Z,99509.83
2018-01-18T03:24:35.768Z,99491.13
2018-01-18T03:27:03.393Z,99488.86
2018-01-18T03:29:30.968Z,99481.80
2018-01-18T03:31:58.602Z,99465.73
2018-01-18T03:34:26.255Z,99457.77
2018-01-18T03:36:53.858Z,99446.46
2018-01-18T03:39:21.466Z,99424.56
2018-01-18T03:41:49.066Z,99410.52
2018-01-18T03:44:16.673Z,99390.30
2018-01-18T03:46:44.266Z,99377.72
2018-01-18T03:49:11.855Z,99356.98
2018-01-18T03:51:39.457Z,99350.91
2018-01-18T03:54:07.112Z,99332.47
2018-01-18T03:56:34.805Z,99325.16
2018-01-18T03:59:02.382Z,99308.47
2018-01-18T04:01:29.987Z,99292.41
2018-01-18T04:03:57.566Z,99271.16
2018-01-18T04:06:25.186Z,99270.13
2018-01-18T04:08:52.754Z,99260.56
2018-01-18T04:11:20.375Z,99249.95
2018-01-18T04:13:47.966Z,99225.03
2018-01-18T04:16:15.627Z,99203.81
2018-01-18T04:18:43.203Z,99192.76
2018-01-18T04:21:10.842Z,99193.53
2018-01-18T04:23:38.429Z,99181.61
2018-01-18T04:26:06.039Z,99170.59
2018-01-18T04:28:33.630Z,99165.68
2018-01-18T04:31:01.237Z,99137.05
2018-01-18T04:33:28.831Z,99113.19
2018-01-18T04:35:56.439Z,99099.39
2018-01-18T04:38:24.022Z,99101.10
2018-01-18T04:40:51.634Z,99076.45
2018-01-18T04:43:19.218Z,99054.05
2018-01-18T04:45:46.868Z,99060.95
2018-01-18T04:48:14.514Z,99070.09
2018-01-18T04:50:42.126Z,99048.75
2018-01-18T04:53:09.787Z,99030.20
2018-01-18T04:55:37.398Z,99020.01
2018-01-18T04:58:05.037Z,99006.09
2018-01-18T05:00:32.650Z,99001.47
2018-01-18T05:03:00.254Z,98994.58
2018-01-18T05:05:27.883Z,98972.72
2018-01-18T05:07:55.481Z,98959.88
2018-01-18T05:10:23.197Z,98955.37
2018-01-18T05:12:50.789Z,98940.29
2018-01-18T05:15:18.417Z,98933.53
2018-01-18T05:17:46.013Z,98931.67
2018-01-18T05:20:13.617Z,98922.64
2018-01-18T05:22:41.209Z,98905.15
2018-01-18T05:25:08.817Z,98898.01
2018-01-18T05:27:36.394Z,98895.33
2018-01-18T05:30:04.019Z,98870.55
2018-01-18T05:32:31.705Z,98852.36
2018-01-18T05:34:59.318Z,98874.89
2018-01-18T05:37:26.906Z,98852.86
2018-01-18T05:39:54.522Z,98839.59
2018-01-18T05:42:22.105Z,98830.57
2018-01-18T05:44:49.717Z,98816.06
2018-01-18T05:47:17.309Z,98834.20
2018-01-18T05:49:44.913Z,98816.95
2018-01-18T05:52:12.513Z,98809.66
2018-01-18T05:54:40.189Z,98838.80
2018-01-18T05:57:07.863Z,98797.03
2018-01-18T05:59:35.525Z,98767.43
2018-01-18T06:02:03.158Z,98760.95
2018-01-18T06:04:30.746Z,98786.09
2018-01-18T06:06:58.363Z,98772.77
2018-01-18T06:09:25.940Z,98748.05
2018-01-18T06:11:53.550Z,98726.77
2018-01-18T06:14:21.169Z,98702.94
2018-01-18T06:16:48.808Z,98712.11
2018-01-18T06:19:16.394Z,98688.28
2018-01-18T06:21:44.034Z,98669.23
2018-01-18T06:24:11.608Z,98694.97
2018-01-18T06:26:39.226Z,98682.58
2018-01-18T06:29:06.817Z,98667.95
2018-01-18T06:31:34.421Z,98670.48
2018-01-18T06:34:02.218Z,98685.95
2018-01-18T06:36:29.838Z,98635.97
2018-01-18T06:38:57.418Z,98641.72
2018-01-18T06:41:25.027Z,98643.92
2018-01-18T06:43:52.605Z,98605.92
2018-01-18T06:46:20.222Z,98599.98
2018-01-18T06:48:47.907Z,98610.62
2018-01-18T06:51:15.535Z,98592.11
2018-01-18T06:53:43.172Z,98592.86
2018-01-18T06:56:10.785Z,98597.38
2018-01-18T06:58:38.393Z,98598.55
2018-01-18T07:01:06.019Z,98596.02
2018-01-18T07:03:33.591Z,98586.80
2018-01-18T07:06:01.207Z,98587.80
2018-01-18T07:08:28.883Z,98574.77
2018-01-18T07:10:56.486Z,98567.69
2018-01-18T07:13:24.245Z,98586.20
2018-01-18T07:15:51.918Z,98573.13
2018-01-18T07:18:19.493Z,98578.72
2018-01-18T07:20:47.281Z,98581.66
2018-01-18T07:23:14.873Z,98566.22
2018-01-18T07:25:42.490Z,98561.50
2018-01-18T07:28:10.076Z,98566.85
2018-01-18T07:30:37.690Z,98536.08
2018-01-18T07:33:05.293Z,98539.72
2018-01-18T07:35:32.913Z,98504.40
2018-01-18T07:38:00.494Z,98528.81
2018-01-18T07:40:28.123Z,98498.91
2018-01-18T07:42:55.709Z,98510.88
2018-01-18T07:45:23.427Z,98510.70
2018-01-18T07:47:51.010Z,98500.78
2018-01-18T07:50:18.624Z,98515.11
2018-01-18T07:52:46.207Z,98489.91
2018-01-18T07:55:13.841Z,98506.80
2018-01-18T07:57:41.434Z,98498.73
2018-01-18T08:00:09.041Z,98505.35
2018-01-18T08:02:36.626Z,98494.25
2018-01-18T08:05:04.237Z,98486.80
2018-01-18T08:07:31.818Z,98475.44
2018-01-18T08:09:59.518Z,98497.80
2018-01-18T08:12:27.110Z,98475.31
2018-01-18T08:14:54.716Z,98497.21
2018-01-18T08:17:22.295Z,98489.63
2018-01-18T08:19:49.910Z,98485.41
2018-01-18T08:22:17.560Z,98516.84
2018-01-18T08:24:45.198Z,98470.80
2018-01-18T08:27:12.777Z,98463.12
2018-01-18T08:29:40.389Z,98463.43
2018-01-18T08:32:07.975Z,98445.05
2018-01-18T08:34:35.599Z,98476.07
2018-01-18T08:37:03.271Z,98452.06
2018-01-18T08:39:30.932Z,98449.80
2018-01-18T08:41:58.600Z,98460.52
2018-01-18T08:44:26.277Z,98450.93
2018-01-18T08:46:53.873Z,98429.14
2018-01-18T08:49:21.595Z,98456.99
2018-01-18T08:51:49.184Z,98455.75
2018-01-18T08:54:16.811Z,98440.83
2018-01-18T08:56:44.444Z,98435.52
2018-01-18T08:59:12.053Z,98448.08
2018-01-18T09:01:39.658Z,98436.30
2018-01-18T09:04:07.272Z,98400.86
2018-01-18T09:06:34.902Z,98482.42
2018-01-18T09:09:02.518Z,98474.68
2018-01-18T09:11:30.113Z,98501.95
2018-01-18T09:13:57.757Z,98401.16
2018-01-18T09:16:25.418Z,98451.98
2018-01-18T09:18:53.046Z,98506.98
2018-01-18T09:21:20.652Z,98453.21
2018-01-18T09:23:48.281Z,98527.41
2018-01-18T09:26:15.842Z,98463.80
2018-01-18T09:28:43.470Z,98525.66
2018-01-18T09:31:11.066Z,98455.47
2018-01-18T09:33:38.694Z,98476.09
2018-01-18T09:36:06.270Z,98457.55
2018-01-18T09:38:33.898Z,98465.55
2018-01-18T09:41:01.493Z,98503.37
2018-01-18T09:43:29.135Z,98554.33
2018-01-18T09:45:56.830Z,98485.88
2018-01-18T09:48:24.480Z,98501.71
2018-01-18T09:50:52.059Z,98560.40
2018-01-18T09:53:19.677Z,98579.39
2018-01-18T09:55:47.305Z,98679.22
2018-01-18T09:58:14.922Z,98575.28
2018-01-18T10:00:42.514Z,98656.39
2018-01-18T10:03:10.170Z,98578.73
2018-01-18T10:05:37.790Z,98679.30
2018-01-18T10:08:05.428Z,98573.30
2018-01-18T10:10:33.146Z,98592.67
2018-01-18T10:13:00.769Z,98612.67
2018-01-18T10:15:28.354Z,98645.34
2018-01-18T10:17:55.962Z,98701.72
2018-01-18T10:20:23.561Z,98710.03
2018-01-18T10:22:51.204Z,98651.91
2018-01-18T10:25:18.786Z,98737.16
2018-01-18T10:27:46.413Z,98674.23
2018-01-18T10:30:14.117Z,98786.47
2018-01-18T10:32:41.752Z,98997.86
2018-01-18T10:35:09.359Z,98783.70
2018-01-18T10:37:37.064Z,98814.22
2018-01-18T10:40:04.662Z,98825.36
2018-01-18T10:42:32.322Z,98788.77
2018-01-18T10:44:59.937Z,98817.45
2018-01-18T10:47:27.571Z,98842.57
2018-01-18T10:49:55.154Z,98852.50
2018-01-18T10:52:22.774Z,98841.20
2018-01-18T10:54:50.367Z,98872.24
2018-01-18T10:57:17.982Z,98867.41
2018-01-18T10:59:45.566Z,98879.04
2018-01-18T11:02:13.178Z,98926.22
2018-01-18T11:04:40.801Z,99004.36
2018-01-18T11:07:08.484Z,98945.83
2018-01-18T11:09:36.126Z,98950.63
2018-01-18T11:12:03.761Z,98945.08
2018-01-18T11:14:31.342Z,98966.07
2018-01-18T11:16:58.970Z,99016.84
2018-01-18T11:19:26.558Z,99008.20
2018-01-18T11:21:54.206Z,99067.16
2018-01-18T11:24:21.803Z,99025.86
2018-01-18T11:26:49.393Z,99070.81
2018-01-18T11:29:16.974Z,99039.30
2018-01-18T11:31:44.594Z,99034.39
2018-01-18T11:34:12.179Z,99033.70
2018-01-18T11:36:39.782Z,99041.33
2018-01-18T11:39:07.360Z,99074.88
2018-01-18T11:41:35.055Z,99073.22
2018-01-18T11:44:02.655Z,99075.13
2018-01-18T11:46:30.291Z,99093.43
2018-01-18T11:48:57.871Z,99084.03
2018-01-18T11:51:25.587Z,99070.47
2018-01-18T11:53:53.186Z,99116.44
2018-01-18T11:56:20.799Z,99104.23
2018-01-18T11:58:48.446Z,99137.74
2018-01-18T12:01:16.052Z,99106.73
2018-01-18T12:03:43.664Z,99124.23
2018-01-18T12:06:11.290Z,99126.88
2018-01-18T12:08:38.886Z,99145.70
2018-01-18T12:11:06.510Z,99137.73
2018-01-18T12:13:34.106Z,99141.16
2018-01-18T12:16:01.736Z,99172.95
2018-01-18T12:18:29.325Z,99220.02
2018-01-18T12:20:56.977Z,99175.91
2018-01-18T12:23:24.585Z,99188.48
2018-01-18T12:25:52.223Z,99191.45
2018-01-18T12:28:19.866Z,99189.73
2018-01-18T12:30:47.511Z,99209.99
2018-01-18T12:33:15.078Z,99222.73
2018-01-18T12:35:42.763Z,99219.77
2018-01-18T12:38:10.304Z,99238.05
2018-01-18T12:40:37.879Z,99236.41
2018-01-18T12:43:05.480Z,99253.28
2018-01-18T12:45:33.145Z,99249.17
2018-01-18T12:48:00.724Z,99256.05
2018-01-18T12:50:28.326Z,99258.44
2018-01-18T12:52:55.905Z,99255.80
2018-01-18T12:55:23.522Z,99274.78
2018-01-18T12:57:51.103Z,99276.25
2018-01-18T13:00:18.732Z,99278.18
2018-01-18T13:02:46.306Z,99291.38
2018-01-18T13:05:13.919Z,99289.16
2018-01-18T13:07:41.515Z,99336.85
2018-01-18T13:10:09.123Z,99307.45
2018-01-18T13:12:36.730Z,99293.72
2018-01-18T13:15:04.361Z,99339.92
2018-01-18T13:17:31.958Z,99313.45
2018-01-18T13:19:59.601Z,99313.84
2018-01-18T13:22:27.190Z,99323.34
2018-01-18T13:24:54.800Z,99322.28
2018-01-18T13:27:22.406Z,99332.54
2018-01-18T13:29:50.045Z,99321.36
2018-01-18T13:32:17.705Z,99333.36
2018-01-18T13:34:45.328Z,99368.34
2018-01-18T13:37:12.921Z,99369.16
2018-01-18T13:39:40.529Z,99365.19
2018-01-18T13:42:08.122Z,99372.09
2018-01-18T13:44:35.750Z,99363.86
2018-01-18T13:47:03.427Z,99394.33
2018-01-18T13:49:31.039Z,99377.02
2018-01-18T13:51:58.642Z,99372.91
2018-01-18T13:54:26.247Z,99384.66
2018-01-18T13:56:53.916Z,99384.39
2018-01-18T13:59:21.540Z,99403.33
2018-01-18T14:01:49.145Z,99407.33
2018-01-18T14:04:16.776Z,99402.41
2018-01-18T14:06:44.357Z,99435.58
2018-01-18T14:09:11.982Z,99418.40
2018-01-18T14:11:39.572Z,99404.81
2018-01-18T14:14:07.209Z,99413.84
2018-01-18T14:16:35.585Z,99424.91
2018-01-18T14:19:03.284Z,99411.33
2018-01-18T14:21:30.977Z,99419.45
2018-01-18T14:23:58.626Z,99417.62
2018-01-18T14:26:26.279Z,99423.73
2018-01-18T14:28:53.878Z,99419.75
2018-01-18T14:31:21.471Z,99409.77
2018-01-18T14:33:49.101Z,99434.80
2018-01-18T14:36:16.702Z,99429.07
2018-01-18T14:38:44.371Z,99433.20
2018-01-18T14:41:11.953Z,99446.66
2018-01-18T14:43:39.583Z,99438.80
2018-01-18T14:46:07.213Z,99442.94
2018-01-18T14:48:34.827Z,99444.81
2018-01-18T14:51:02.430Z,99473.14
2018-01-18T14:53:30.106Z,99456.38
2018-01-18T14:55:57.689Z,99463.14
2018-01-18T14:58:25.298Z,99462.48
2018-01-18T15:00:52.893Z,99470.89
2018-01-18T15:03:20.510Z,99468.73
2018-01-18T15:05:48.106Z,99475.94
2018-01-18T15:08:15.734Z,99482.73
2018-01-18T15:10:43.313Z,99488.98
2018-01-18T15:13:10.955Z,99487.52
2018-01-18T15:15:38.531Z,99483.15
2018-01-18T15:18:06.161Z,99486.88
2018-01-18T15:20:33.797Z,99491.14
2018-01-18T15:23:01.490Z,99490.45
2018-01-18T15:25:29.070Z,99486.73
2018-01-18T15:27:56.687Z,99500.70
2018-01-18T15:30:24.291Z,99504.42
2018-01-18T15:32:51.923Z,99503.91
2018-01-18T15:35:19.507Z,99518.18
2018-01-18T15:37:47.129Z,99522.45
2018-01-18T15:40:14.728Z,99516.71
2018-01-18T15:42:42.343Z,99517.22
2018-01-18T15:45:09.970Z,99524.16
2018-01-18T15:47:37.602Z,99520.98
2018-01-18T15:50:05.290Z,99526.71
2018-01-18T15:52:32.916Z,99519.37
2018-01-18T15:55:00.491Z,99521.38
2018-01-18T15:57:28.261Z,99527.91
2018-01-18T15:59:55.866Z,99539.88
2018-01-18T16:02:23.617Z,99534.69
2018-01-18T16:04:51.225Z,99542.28
2018-01-18T16:07:19.034Z,99537.36
2018-01-18T16:09:46.637Z,99546.69
2018-01-18T16:12:14.261Z,99545.87
2018-01-18T16:14:41.859Z,99550.78
2018-01-18T16:17:09.489Z,99564.09
2018-01-18T16:19:37.069Z,99546.28
2018-01-18T16:22:04.673Z,99555.59
2018-01-18T16:24:32.290Z,99553.31
2018-01-18T16:26:59.886Z,99558.25
2018-01-18T16:29:27.537Z,99557.05
2018-01-18T16:31:55.197Z,99556.50
2018-01-18T16:34:22.858Z,99563.28
2018-01-18T16:36:50.442Z,99567.27
2018-01-18T16:39:18.066Z,99579.66
2018-01-18T16:41:45.841Z,99568.50
2018-01-18T16:44:13.488Z,99588.19
2018-01-18T16:46:41.135Z,99597.89
2018-01-18T16:49:08.754Z,99578.60
2018-01-18T16:51:36.317Z,99569.30
2018-01-18T16:54:04.006Z,99568.36
2018-01-18T16:56:31.649Z,99576.98
2018-01-18T16:58:59.254Z,99575.28
2018-01-18T17:01:26.835Z,99569.54
2018-01-18T17:03:54.467Z,99577.13
2018-01-18T17:06:22.085Z,99568.59
2018-01-18T17:08:49.731Z,99573.66
2018-01-18T17:11:17.310Z,99574.71
2018-01-18T17:13:44.934Z,99570.84
2018-01-18T17:16:12.550Z,99572.95
2018-01-18T17:18:40.168Z,99591.58
2018-01-18T17:21:07.734Z,99582.93
2018-01-18T17:23:35.368Z,99574.95
2018-01-18T17:26:02.977Z,99580.55
2018-01-18T17:28:30.609Z,99581.07
2018-01-18T17:30:58.186Z,99585.70
2018-01-18T17:33:25.822Z,99583.45
2018-01-18T17:35:53.412Z,99588.36
2018-01-18T17:38:21.051Z,99587.17
2018-01-18T17:40:48.643Z,99588.92
2018-01-18T17:43:16.253Z,99594.38
2018-01-18T17:45:43.850Z,99600.88
2018-01-18T17:48:11.528Z,99608.48
2018-01-18T17:50:39.130Z,99597.55
2018-01-18T17:53:06.746Z,99595.97
2018-01-18T17:55:34.339Z,99601.15
2018-01-18T17:58:02.050Z,99605.78
2018-01-18T18:00:29.673Z,99605.77
2018-01-18T18:02:57.285Z,99615.06
2018-01-18T18:05:24.890Z,99618.61
2018-01-18T18:07:52.505Z,99616.75
2018-01-18T18:10:20.146Z,99613.13
2018-01-18T18:12:47.761Z,99617.64
2018-01-18T18:15:15.355Z,99618.00
2018-01-18T18:17:42.978Z,99617.05
2018-01-18T18:20:10.670Z,99618.77
2018-01-18T18:22:38.328Z,99617.41
2018-01-18T18:25:05.929Z,99617.53
2018-01-18T18:27:33.554Z,99615.25
2018-01-18T18:30:01.168Z,99613.40
2018-01-18T18:32:28.817Z,99615.36
2018-01-18T18:34:56.410Z,99618.75
2018-01-18T18:37:24.102Z,99617.55
2018-01-18T18:39:51.689Z,99614.26
2018-01-18T18:42:19.306Z,99613.70
2018-01-18T18:44:46.930Z,99611.84
2018-01-18T18:47:14.563Z,99615.96
2018-01-18T18:49:42.226Z,99619.09
2018-01-18T18:52:09.851Z,99618.93
2018-01-18T18:54:37.422Z,99621.86
2018-01-18T18:57:05.074Z,99627.16
2018-01-18T18:59:32.690Z,99620.94
2018-01-18T19:02:00.318Z,99629.60
2018-01-18T19:04:27.968Z,99627.24
2018-01-18T19:06:55.599Z,99626.44
2018-01-18T19:09:23.192Z,99630.89
2018-01-18T19:11:50.826Z,99630.91
2018-01-18T19:14:18.432Z,99632.13
2018-01-18T19:16:46.074Z,99625.14
2018-01-18T19:19:13.667Z,99623.69
2018-01-18T19:21:41.312Z,99632.16
2018-01-18T19:24:08.983Z,99631.38
2018-01-18T19:26:36.626Z,99630.58
2018-01-18T19:29:04.246Z,99633.34
2018-01-18T19:31:31.961Z,99635.36
2018-01-18T19:33:59.575Z,99629.38
2018-01-18T19:36:28.042Z,99633.22
2018-01-18T19:38:55.632Z,99633.72
2018-01-18T19:41:23.250Z,99632.97
2018-01-18T19:43:50.842Z,99634.16
2018-01-18T19:46:18.483Z,99640.89
2018-01-18T19:48:46.103Z,99634.08
2018-01-18T19:51:13.744Z,99630.38
2018-01-18T19:53:41.337Z,99624.27
2018-01-18T19:56:08.981Z,99622.45
2018-01-18T19:58:36.608Z,99624.87
2018-01-18T20:01:04.299Z,99618.26
2018-01-18T20:03:31.922Z,99622.52
2018-01-18T20:05:59.534Z,99621.20
2018-01-18T20:08:27.137Z,99626.23
2018-01-18T20:10:54.758Z,99623.30
2018-01-18T20:13:22.397Z,99624.05
2018-01-18T20:15:50.039Z,99620.63
2018-01-18T20:18:17.619Z,99615.45
2018-01-18T20:20:45.262Z,99614.23
2018-01-18T20:23:12.837Z,99613.75
2018-01-18T20:25:40.506Z,99611.83
2018-01-18T20:28:08.108Z,99619.55
2018-01-18T20:30:35.788Z,99610.23
2018-01-18T20:33:03.423Z,99620.17
2018-01-18T20:35:31.052Z,99621.63
2018-01-18T20:37:58.702Z,99626.55
2018-01-18T20:40:26.338Z,99622.83
2018-01-18T20:42:53.948Z,99623.61
2018-01-18T20:45:21.577Z,99624.40
2018-01-18T20:47:49.167Z,99631.03
2018-01-18T20:50:16.803Z,99630.47
2018-01-18T20:52:44.387Z,99629.41
2018-01-18T20:55:12.031Z,99620.86
2018-01-18T20:57:39.653Z,99618.13
2018-01-18T21:00:07.260Z,99617.16
2018-01-18T21:02:34.879Z,99613.84
2018-01-18T21:05:02.503Z,99607.80
2018-01-18T21:07:30.107Z,99611.44
2018-01-18T21:09:57.731Z,99613.27
2018-01-18T21:12:25.331Z,99608.70
2018-01-18T21:14:52.964Z,99607.89
2018-01-18T21:17:20.549Z,99614.19
2018-01-18T21:19:48.170Z,99601.59
2018-01-18T21:22:15.774Z,99604.81
2018-01-18T21:24:43.406Z,99597.19
2018-01-18T21:27:10.987Z,99607.47
2018-01-18T21:29:38.767Z,99607.78
2018-01-18T21:32:06.434Z,99596.73
2018-01-18T21:34:34.058Z,99597.15
2018-01-18T21:37:01.646Z,99604.80
2018-01-18T21:39:29.283Z,99607.56
2018-01-18T21:41:57.079Z,99610.42
2018-01-18T21:44:24.694Z,99613.20
2018-01-18T21:46:52.297Z,99602.42
2018-01-18T21:49:19.905Z,99596.22
2018-01-18T21:51:47.489Z,99601.32
2018-01-18T21:54:15.175Z,99606.84
2018-01-18T21:56:42.778Z,99605.59
2018-01-18T21:59:10.399Z,99602.31
2018-01-18T22:01:38.010Z,99597.25
2018-01-18T22:04:05.894Z,99603.86
2018-01-18T22:06:33.485Z,99605.48
2018-01-18T22:09:01.126Z,99600.55
2018-01-18T22:11:28.726Z,99596.79
2018-01-18T22:13:56.346Z,99597.94
2018-01-18T22:16:23.959Z,99606.71
2018-01-18T22:18:51.679Z,99610.63
2018-01-18T22:21:19.287Z,99615.59
2018-01-18T22:23:46.942Z,99616.30
2018-01-18T22:26:14.528Z,99610.75
2018-01-18T22:28:42.146Z,99615.70
2018-01-18T22:31:09.782Z,99614.38
2018-01-18T22:33:37.394Z,99612.69
2018-01-18T22:36:04.970Z,99616.30
2018-01-18T22:38:32.573Z,99619.63
2018-01-18T22:41:00.178Z,99621.48
2018-01-18T22:43:27.825Z,99619.95
2018-01-18T22:45:55.518Z,99623.12
2018-01-18T22:48:23.134Z,99630.44
2018-01-18T22:50:50.743Z,99629.09
2018-01-18T22:53:18.362Z,99628.71
2018-01-18T22:55:45.949Z,99628.70
2018-01-18T22:58:13.549Z,99624.66
2018-01-18T23:00:41.141Z,99622.97
2018-01-18T23:03:08.803Z,99619.86
2018-01-18T23:05:36.399Z,99623.61
2018-01-18T23:08:04.018Z,99620.78
2018-01-18T23:10:31.597Z,99617.30
2018-01-18T23:12:59.216Z,99626.22
2018-01-18T23:15:26.796Z,99634.81
2018-01-18T23:17:54.445Z,99645.41
2018-01-18T23:20:22.144Z,99639.61
2018-01-18T23:22:49.762Z,99649.97
2018-01-18T23:25:17.374Z,99649.05
2018-01-18T23:27:45.006Z,99652.23
2018-01-18T23:30:12.650Z,99661.30
2018-01-18T23:32:40.274Z,99656.45
2018-01-18T23:35:07.858Z,99665.77
2018-01-18T23:37:35.474Z,99663.77
2018-01-18T23:40:03.042Z,99662.73
2018-01-18T23:42:30.682Z,99671.08
2018-01-18T23:44:58.269Z,99665.00
2018-01-18T23:47:25.926Z,99679.95
2018-01-18T23:49:53.509Z,99676.25
2018-01-18T23:52:21.150Z,99677.17
2018-01-18T23:54:48.763Z,99681.37
2018-01-18T23:57:16.485Z,99686.47
2018-01-18T23:59:44.066Z,99694.50
